RJOS(METAR)
06/28 22:00
METAR RJOS 281300Z 19007KT 9999 FEW020 BKN230 24/20 Q1013 RMK 1CU020
A2992=
戻る
トップページへ戻る
IMOC Co,.Ltd.